createdAt,value
2022-12-08T00:02:45.595Z,9.25
2022-12-08T00:06:59.410Z,9.29
2022-12-08T00:10:59.601Z,9.48
2022-12-08T00:14:59.782Z,9.50
2022-12-08T00:19:02.470Z,9.42
2022-12-08T00:23:04.291Z,9.34
2022-12-08T00:27:05.101Z,9.49
2022-12-08T00:31:12.591Z,9.55
2022-12-08T00:35:15.383Z,9.57
2022-12-08T00:39:17.855Z,9.43
2022-12-08T00:43:18.204Z,9.54
2022-12-08T00:47:23.435Z,9.40
2022-12-08T00:51:27.387Z,9.53
2022-12-08T00:55:27.684Z,9.54
2022-12-08T00:59:27.817Z,9.51
2022-12-08T01:03:27.971Z,9.55
2022-12-08T01:07:31.331Z,9.30
2022-12-08T01:11:31.431Z,9.30
2022-12-08T01:15:31.587Z,9.35
2022-12-08T01:19:31.747Z,9.52
2022-12-08T01:23:34.600Z,9.26
2022-12-08T01:27:34.792Z,9.40
2022-12-08T01:31:35.059Z,9.42
2022-12-08T01:35:36.868Z,9.19
2022-12-08T01:39:41.262Z,9.12
2022-12-08T01:44:02.150Z,9.03
2022-12-08T01:48:08.739Z,9.16
2022-12-08T01:52:19.484Z,9.58
2022-12-08T01:56:30.667Z,9.59
2022-12-08T02:00:30.751Z,9.29
2022-12-08T02:04:30.967Z,9.12
2022-12-08T02:08:32.299Z,9.03
2022-12-08T02:12:35.170Z,9.33
2022-12-08T02:16:50.148Z,9.25
2022-12-08T02:21:00.887Z,9.15
2022-12-08T02:25:14.035Z,9.16
2022-12-08T02:30:05.137Z,8.91
2022-12-08T02:34:28.024Z,8.90
2022-12-08T02:38:46.998Z,8.67
2022-12-08T02:42:54.151Z,9.02
2022-12-08T02:47:06.197Z,8.63
2022-12-08T02:51:09.707Z,8.78
2022-12-08T02:55:27.611Z,8.66
2022-12-08T02:59:52.963Z,8.74
2022-12-08T03:04:07.423Z,8.71
2022-12-08T03:08:20.090Z,8.56
2022-12-08T03:12:28.843Z,8.59
2022-12-08T03:16:32.106Z,8.72
2022-12-08T03:20:35.701Z,8.52
2022-12-08T03:24:42.227Z,8.64
2022-12-08T03:28:42.844Z,8.44
2022-12-08T03:32:51.348Z,8.75
2022-12-08T03:36:51.496Z,8.99
2022-12-08T03:41:06.496Z,8.57
2022-12-08T03:45:07.722Z,8.96
2022-12-08T03:49:07.835Z,8.71
2022-12-08T03:53:08.052Z,8.72
2022-12-08T03:57:10.760Z,8.68
2022-12-08T04:01:11.317Z,8.88
2022-12-08T04:05:12.287Z,8.56
2022-12-08T04:09:12.456Z,8.62
2022-12-08T04:13:15.191Z,8.42
2022-12-08T04:17:15.280Z,8.50
2022-12-08T04:21:15.544Z,8.11
2022-12-08T04:25:15.632Z,8.36
2022-12-08T04:29:18.700Z,8.18
2022-12-08T04:33:19.044Z,8.10
2022-12-08T04:37:19.143Z,8.18
2022-12-08T04:41:19.268Z,8.14
2022-12-08T04:45:22.176Z,7.92
2022-12-08T04:49:22.300Z,7.98
2022-12-08T04:53:22.563Z,8.24
2022-12-08T04:57:22.731Z,8.12
2022-12-08T05:01:25.461Z,8.26
2022-12-08T05:05:25.701Z,8.09
2022-12-08T05:09:25.928Z,8.24
2022-12-08T05:13:26.249Z,8.35
2022-12-08T05:17:28.966Z,8.34
2022-12-08T05:21:29.123Z,8.40
2022-12-08T05:25:29.407Z,8.22
2022-12-08T05:29:30.010Z,8.10
2022-12-08T05:33:32.680Z,8.36
2022-12-08T05:37:32.811Z,8.07
2022-12-08T05:41:32.927Z,8.08
2022-12-08T05:45:33.141Z,8.01
2022-12-08T05:49:36.161Z,7.90
2022-12-08T05:53:36.303Z,8.00
2022-12-08T05:57:36.497Z,8.00
2022-12-08T06:01:37.096Z,8.07
2022-12-08T06:05:39.922Z,8.07
2022-12-08T06:09:40.016Z,8.46
2022-12-08T06:13:40.112Z,8.52
2022-12-08T06:17:40.188Z,8.34
2022-12-08T06:21:42.901Z,8.35
2022-12-08T06:25:42.980Z,8.41
2022-12-08T06:29:43.038Z,8.14
2022-12-08T06:33:43.299Z,8.20
2022-12-08T06:37:46.250Z,8.35
2022-12-08T06:41:58.642Z,8.27
2022-12-08T06:45:58.942Z,8.39
2022-12-08T06:49:59.053Z,8.41
2022-12-08T06:54:01.869Z,8.42
2022-12-08T06:58:02.001Z,8.49
2022-12-08T07:02:02.301Z,8.47
2022-12-08T07:06:04.325Z,8.55
2022-12-08T07:10:08.946Z,8.48
2022-12-08T07:14:10.929Z,8.40
2022-12-08T07:18:11.230Z,8.63
2022-12-08T07:22:11.271Z,8.56
2022-12-08T07:26:15.753Z,8.68
2022-12-08T07:30:17.565Z,8.60
2022-12-08T07:34:17.874Z,8.70
2022-12-08T07:38:17.977Z,8.72
2022-12-08T07:42:20.721Z,8.85
2022-12-08T07:46:24.341Z,8.76
2022-12-08T07:50:24.601Z,8.60
2022-12-08T07:54:24.743Z,8.91
2022-12-08T07:58:27.936Z,8.68
2022-12-08T08:02:28.116Z,8.91
2022-12-08T08:06:28.357Z,8.89
2022-12-08T08:10:28.561Z,8.67
2022-12-08T08:14:31.241Z,8.79
2022-12-08T08:18:31.294Z,9.08
2022-12-08T08:22:31.663Z,8.82
2022-12-08T08:26:31.757Z,8.85
2022-12-08T08:30:34.416Z,9.03
2022-12-08T08:34:34.574Z,9.05
2022-12-08T08:38:34.903Z,9.00
2022-12-08T08:42:35.063Z,9.18
2022-12-08T08:46:37.932Z,9.29
2022-12-08T08:50:38.150Z,9.02
2022-12-08T08:54:38.396Z,9.14
2022-12-08T08:58:38.564Z,9.52
2022-12-08T09:02:41.815Z,9.31
2022-12-08T09:06:43.249Z,9.33
2022-12-08T09:10:43.616Z,9.60
2022-12-08T09:14:43.833Z,9.44
2022-12-08T09:18:46.596Z,9.40
2022-12-08T09:22:46.839Z,9.29
2022-12-08T09:26:49.853Z,9.23
2022-12-08T09:30:50.690Z,10.02
2022-12-08T09:34:54.306Z,10.22
2022-12-08T09:38:55.912Z,10.23
2022-12-08T09:43:07.758Z,10.24
2022-12-08T09:47:21.952Z,10.20
2022-12-08T09:51:27.411Z,10.59
2022-12-08T09:55:43.079Z,10.87
2022-12-08T09:59:47.705Z,10.64
2022-12-08T10:03:48.203Z,10.47
2022-12-08T10:08:06.514Z,10.40
2022-12-08T10:12:19.513Z,10.11
2022-12-08T10:16:31.122Z,10.47
2022-12-08T10:20:41.431Z,10.51
2022-12-08T10:24:56.566Z,10.36
2022-12-08T10:29:01.345Z,10.37
2022-12-08T10:33:01.610Z,10.29
2022-12-08T10:37:03.400Z,9.77
2022-12-08T10:41:10.176Z,10.19
2022-12-08T10:45:27.687Z,10.07
2022-12-08T10:49:35.957Z,10.02
2022-12-08T10:53:48.968Z,10.07
2022-12-08T10:57:51.766Z,9.99
2022-12-08T11:01:54.802Z,10.25
2022-12-08T11:06:07.285Z,10.49
2022-12-08T11:10:22.322Z,10.43
2022-12-08T11:14:29.122Z,10.75
2022-12-08T11:18:41.974Z,10.35
2022-12-08T11:22:44.744Z,10.89
2022-12-08T11:26:53.653Z,10.93
2022-12-08T11:31:05.533Z,11.33
2022-12-08T11:35:10.023Z,12.09
2022-12-08T11:39:15.900Z,12.00
2022-12-08T11:43:23.883Z,11.80
2022-12-08T11:47:37.056Z,11.98
2022-12-08T11:51:42.876Z,12.23
2022-12-08T11:55:50.358Z,11.41
2022-12-08T11:59:53.768Z,11.45
2022-12-08T12:04:10.133Z,10.95
2022-12-08T12:08:31.756Z,11.90
2022-12-08T12:12:54.837Z,12.24
2022-12-08T12:17:08.074Z,12.10
2022-12-08T12:21:22.719Z,12.71
2022-12-08T12:25:26.770Z,12.79
2022-12-08T12:29:31.078Z,12.60
2022-12-08T12:33:34.192Z,12.81
2022-12-08T12:37:45.634Z,13.39
2022-12-08T12:41:51.161Z,12.35
2022-12-08T12:45:51.727Z,12.67
2022-12-08T12:50:10.078Z,12.33
2022-12-08T12:54:29.781Z,12.58
2022-12-08T12:58:42.797Z,12.47
2022-12-08T13:02:51.465Z,12.50
2022-12-08T13:06:53.553Z,12.03
2022-12-08T13:11:05.402Z,11.74
2022-12-08T13:15:09.964Z,11.53
2022-12-08T13:19:18.847Z,11.51
2022-12-08T13:23:47.304Z,10.97
2022-12-08T13:27:57.931Z,10.75
2022-12-08T13:32:00.038Z,11.37
2022-12-08T13:36:25.382Z,11.45
2022-12-08T13:40:31.916Z,11.43
2022-12-08T13:54:42.620Z,10.82
2022-12-08T13:57:53.659Z,11.10
2022-12-08T14:01:57.883Z,11.36
2022-12-08T14:06:13.852Z,11.30
2022-12-08T14:10:23.295Z,11.17
2022-12-08T14:15:00.705Z,11.55
2022-12-08T14:18:54.095Z,11.50
2022-12-08T14:22:55.781Z,11.05
2022-12-08T14:26:59.897Z,11.19
2022-12-08T14:31:00.257Z,10.95
2022-12-08T14:35:18.170Z,11.14
2022-12-08T14:39:20.009Z,11.12
2022-12-08T14:43:23.594Z,11.07
2022-12-08T14:47:23.771Z,10.73
2022-12-08T14:51:33.659Z,10.15
2022-12-08T14:55:40.228Z,9.84
2022-12-08T14:59:43.923Z,9.73
2022-12-08T15:03:50.416Z,9.49
2022-12-08T15:07:58.732Z,9.28
2022-12-08T15:12:04.450Z,8.87
2022-12-08T15:16:06.457Z,9.00
2022-12-08T15:20:09.595Z,8.79
2022-12-08T15:24:15.446Z,8.76
2022-12-08T15:28:17.186Z,8.67
2022-12-08T15:32:22.117Z,8.51
2022-12-08T15:36:22.488Z,8.37
2022-12-08T15:40:27.098Z,8.10
2022-12-08T15:44:27.391Z,8.02
2022-12-08T15:48:30.587Z,7.92
2022-12-08T15:52:30.668Z,8.04
2022-12-08T15:56:34.406Z,7.95
2022-12-08T16:00:56.817Z,7.92
2022-12-08T16:05:40.195Z,7.52
2022-12-08T16:09:26.269Z,7.52
2022-12-08T16:13:56.793Z,7.38
2022-12-08T16:17:59.242Z,7.32
2022-12-08T16:30:45.665Z,6.80
2022-12-08T16:34:46.194Z,6.82
2022-12-08T16:38:46.296Z,6.81
2022-12-08T16:42:48.545Z,6.75
2022-12-08T16:46:51.298Z,6.31
2022-12-08T16:50:51.687Z,6.47
2022-12-08T16:54:51.923Z,6.43
2022-12-08T16:58:52.143Z,6.53
2022-12-08T17:02:55.957Z,6.50
2022-12-08T17:06:56.101Z,6.46
2022-12-08T17:11:07.374Z,6.12
2022-12-08T17:15:11.298Z,6.38
2022-12-08T17:19:16.642Z,6.00
2022-12-08T17:23:16.808Z,6.35
2022-12-08T17:27:16.951Z,6.42
2022-12-08T17:31:21.377Z,6.36
2022-12-08T17:35:26.408Z,6.21
2022-12-08T17:39:27.029Z,6.07
2022-12-08T17:43:27.181Z,6.03
2022-12-08T17:47:27.389Z,5.94
2022-12-08T17:51:30.074Z,6.06
2022-12-08T17:55:30.126Z,5.95
2022-12-08T17:59:31.847Z,5.92
2022-12-08T18:03:32.137Z,5.86
2022-12-08T18:07:34.841Z,5.92
2022-12-08T18:11:36.128Z,5.71
2022-12-08T18:15:39.284Z,5.92
2022-12-08T18:19:39.694Z,5.92
2022-12-08T18:23:46.056Z,5.77
2022-12-08T18:27:47.118Z,5.90
2022-12-08T18:31:47.412Z,6.14
2022-12-08T18:35:49.184Z,6.45
2022-12-08T18:39:52.083Z,6.72
2022-12-08T18:43:52.449Z,6.84
2022-12-08T18:47:54.863Z,7.02
2022-12-08T18:51:55.073Z,7.03
2022-12-08T18:55:57.881Z,6.89
2022-12-08T18:59:58.016Z,6.96
2022-12-08T19:04:26.761Z,7.13
2022-12-08T19:08:18.583Z,7.45
2022-12-08T19:12:21.306Z,7.45
2022-12-08T19:16:21.693Z,7.65
2022-12-08T19:20:22.273Z,6.25
2022-12-08T19:24:23.041Z,7.64
2022-12-08T19:28:25.775Z,7.56
2022-12-08T19:32:25.952Z,7.59
2022-12-08T19:36:27.661Z,7.62
2022-12-08T19:40:48.791Z,7.19
2022-12-08T19:44:57.121Z,7.66
2022-12-08T19:48:58.549Z,7.54
2022-12-08T19:52:59.434Z,7.58
2022-12-08T19:57:00.040Z,7.51
2022-12-08T20:01:03.096Z,7.46
2022-12-08T20:05:03.319Z,7.55
2022-12-08T20:09:03.532Z,7.67
2022-12-08T20:13:17.779Z,7.55
2022-12-08T20:17:20.598Z,7.55
2022-12-08T20:21:20.885Z,7.24
2022-12-08T20:25:21.209Z,7.23
2022-12-08T20:29:21.511Z,7.59
2022-12-08T20:33:24.325Z,7.73
2022-12-08T20:37:24.565Z,7.65
2022-12-08T20:41:26.033Z,7.60
2022-12-08T20:45:26.134Z,7.57
2022-12-08T20:49:34.422Z,7.76
2022-12-08T20:53:35.027Z,7.55
2022-12-08T20:57:35.522Z,7.65
2022-12-08T21:01:35.861Z,7.61
2022-12-08T21:05:39.116Z,7.64
2022-12-08T21:09:40.173Z,7.41
2022-12-08T21:13:43.427Z,7.48
2022-12-08T21:17:53.941Z,6.40
2022-12-08T21:26:44.784Z,6.07
2022-12-08T21:30:50.778Z,7.49
2022-12-08T21:35:00.257Z,7.58
2022-12-08T21:39:11.657Z,7.64
2022-12-08T21:43:12.129Z,7.30
2022-12-08T21:47:12.630Z,7.46
2022-12-08T21:51:12.931Z,7.62
2022-12-08T21:55:19.039Z,7.64
2022-12-08T21:59:19.888Z,7.69
2022-12-08T22:03:20.207Z,7.73
2022-12-08T22:07:20.677Z,7.74
2022-12-08T22:11:23.351Z,7.69
2022-12-08T22:15:23.434Z,7.74
2022-12-08T22:19:24.754Z,7.69
2022-12-08T22:23:25.831Z,7.43
2022-12-08T22:27:28.742Z,7.58
2022-12-08T22:31:29.849Z,7.72
2022-12-08T22:35:30.322Z,7.69
2022-12-08T22:39:30.755Z,7.52
2022-12-08T22:43:34.031Z,7.63
2022-12-08T22:47:34.451Z,7.56
2022-12-08T22:51:35.139Z,7.46
2022-12-08T22:55:35.851Z,7.39
2022-12-08T22:59:40.985Z,7.46
2022-12-08T23:03:41.221Z,7.11
2022-12-08T23:07:42.016Z,7.20
2022-12-08T23:11:44.355Z,7.14
2022-12-08T23:15:47.288Z,7.11
2022-12-08T23:19:47.465Z,7.26
2022-12-08T23:23:50.092Z,7.31
2022-12-08T23:27:50.806Z,7.14
2022-12-08T23:31:53.774Z,7.40
2022-12-08T23:36:00.039Z,7.35
2022-12-08T23:40:00.430Z,7.31
2022-12-08T23:44:00.693Z,7.34
2022-12-08T23:48:03.607Z,7.42
2022-12-08T23:52:03.976Z,7.02
2022-12-08T23:56:07.245Z,7.26
